Terminal Aerodrome Forecast
Issued by NWS

Home | Current Version | Previous Version | Text Only | Print | Product List | Glossary On
Versions: 1 2 3 4 5 6 7 8 9 10 11 12 13 14 15 16 17 18 19 20 21 22 23
000
FTAK31 PANC 270523
TAFAVD
TAF
PAVD 270523Z 2706/2806 VRB03KT 6SM -RA BKN025 OVC045
      TEMPO 2708/2712 2SM -RA BR BKN004 BKN012
     FM271200 VRB03KT 2SM -RA BR BKN004 OVC012
     FM271900 VRB06KT 6SM -SHRA BKN012 OVC025
     FM272200 VRB03KT P6SM -SHRA BKN025
      AMD LTD TO CLD VIS AND WIND=

USA.gov is the U.S. government's official web portal to all federal, state and local government web resources and services.